SBUA/SJL METAR and TAF weather

Enter ICAO airport designator
Station Type Date Time Source
SBUA METAR 2021/07/26 17:00 UTC NOAA

SBUA 261700Z 31005KT 260V360 9999 SCT018 BKN090 30/27 Q1013


Station Type Date Time Source
SBUA Decoded METAR 2021/07/26 17:00 UTC NOAA

Sao Gabriel Da Cachoeira, Brazil (SBUA) 00-08S 067-05W
Jul 26, 2021 - 01:00 PM EDT / 2021.07.26 1700 UTC
Wind: from the NW (310 degrees) at 6 MPH (5 KT) (direction variable):0
Visibility: greater than 7 mile(s):0
Sky conditions: mostly cloudy
Temperature: 86 F (30 C)
Heat index: 101.8 F (38.8 C):1
Dew Point: 80 F (27 C)
Relative Humidity: 84%
Pressure (altimeter): 29.91 in. Hg (1013 hPa)
ob: SBUA 261700Z 31005KT 260V360 9999 SCT018 BKN090 30/27 Q1013
cycle: 17

Station Type Date Time Source
SBUA TAF 2015/12/16 12:56 UTC NOAA

SBUA 161000Z 1612/1624 00000KT 8000 BKN008 FEW025TCU TN25/1612Z TX34/ 1618Z
BECMG 1613/1615 32005KT 9999 BKN015
BECMG 1617/1619 06005KT SCT017 FEW025TCU PROB40 1619/1622 4000 TSRA BKN015 FEW025CB
RMK PDZ

Example: see airport list